Time;durP1;ratioP1;P1;durP2;ratioP2;P2;SDS_P1;SDS_P2;PMS_P1;PMS_P2;Temp;Humidity;BMP_temperature;BMP_pressure;BME280_temperature;BME280_humidity;BME280_pressure;Samples;Min_cycle;Max_cycle;Signal;HPM_P1;HPM_P2
2023/01/08 00:07:55;;;;;;;3.53;1.80;;;3.30;99.90;;;;;;21145635;28;20437;-60
2023/01/08 00:17:57;;;;;;;5.28;2.45;;;3.60;99.90;;;;;;21119111;28;20441;-57
2023/01/08 00:27:58;;;;;;;6.13;3.83;;;3.60;99.90;;;;;;21161027;28;20080;-58
2023/01/08 00:38:00;;;;;;;12.25;7.00;;;3.50;99.90;;;;;;21135396;28;20035;-57
2023/01/08 00:48:01;;;;;;;7.05;4.00;;;3.30;99.90;;;;;;21121860;28;20035;-57
2023/01/08 00:58:03;;;;;;;8.43;4.22;;;3.40;99.90;;;;;;21157976;28;20036;-59
2023/01/08 01:08:05;;;;;;;8.05;3.53;;;3.50;99.90;;;;;;21132880;28;20540;-59
2023/01/08 01:18:07;;;;;;;2.60;1.52;;;3.50;99.90;;;;;;21138094;28;20039;-59
2023/01/08 01:28:08;;;;;;;4.05;2.55;;;3.60;99.90;;;;;;21156308;28;20027;-59
2023/01/08 01:38:10;;;;;;;3.95;2.17;;;3.60;99.90;;;;;;21111900;28;20036;-58
2023/01/08 01:48:14;;;;;;;6.47;3.85;;;3.60;99.90;;;;;;21127741;28;20038;-57
2023/01/08 01:58:23;;;;;;;16.98;9.07;;;3.40;99.90;;;;;;21154208;28;20035;-58
2023/01/08 02:08:49;;;;;;;15.55;8.65;;;3.30;99.90;;;;;;21153250;28;20044;-57
2023/01/08 02:18:59;;;;;;;12.63;6.68;;;3.10;99.90;;;;;;21152481;28;20108;-58
2023/01/08 02:29:06;;;;;;;12.33;6.60;;;3.00;99.90;;;;;;21157886;28;20088;-57
2023/01/08 02:39:52;;;;;;;15.35;8.25;;;2.90;99.90;;;;;;21132764;28;20036;-57
2023/01/08 02:50:02;;;;;;;16.20;8.60;;;2.80;99.90;;;;;;21084244;28;20070;-58
2023/01/08 03:00:05;;;;;;;19.48;7.75;;;2.70;99.90;;;;;;21167960;28;20534;-53
2023/01/08 03:10:08;;;;;;;16.73;8.32;;;2.70;99.90;;;;;;21161236;28;20036;-54
2023/01/08 03:20:16;;;;;;;14.80;8.00;;;2.80;99.90;;;;;;21151543;28;20032;-57
2023/01/08 03:30:19;;;;;;;17.45;8.45;;;2.80;99.90;;;;;;21163364;28;20077;-57
2023/01/08 03:40:30;;;;;;;9.32;5.60;;;2.90;99.90;;;;;;21149231;28;20101;-57
2023/01/08 03:50:32;;;;;;;9.43;4.90;;;2.90;99.90;;;;;;21121214;28;20040;-57
2023/01/08 04:00:34;;;;;;;1.60;0.90;;;2.90;99.90;;;;;;21142939;28;20039;-59
2023/01/08 04:10:35;;;;;;;1.98;1.15;;;3.10;99.90;;;;;;21124298;28;20409;-60
2023/01/08 04:20:37;;;;;;;1.35;0.73;;;4.00;99.90;;;;;;21122403;28;20032;-60
2023/01/08 04:30:38;;;;;;;3.20;1.48;;;4.00;99.90;;;;;;21104660;28;20032;-60
2023/01/08 04:40:40;;;;;;;1.23;0.57;;;4.00;99.90;;;;;;21146701;28;20101;-60
2023/01/08 04:50:41;;;;;;;2.65;0.75;;;4.20;99.90;;;;;;21104795;28;20553;-58
2023/01/08 05:00:43;;;;;;;2.72;1.58;;;4.30;99.90;;;;;;21152281;28;20029;-59
2023/01/08 05:10:45;;;;;;;1.58;0.40;;;4.10;99.90;;;;;;21138185;28;20076;-59
2023/01/08 05:20:46;;;;;;;2.15;0.70;;;4.30;99.90;;;;;;21140507;28;20471;-61
2023/01/08 05:30:49;;;;;;;3.50;1.77;;;4.50;99.90;;;;;;21149331;28;20028;-59
2023/01/08 05:40:53;;;;;;;4.07;2.40;;;4.30;99.90;;;;;;21141045;28;20476;-59
2023/01/08 05:50:55;;;;;;;6.43;3.45;;;4.00;99.90;;;;;;21112867;28;20051;-59
2023/01/08 06:01:05;;;;;;;5.60;3.15;;;4.30;99.90;;;;;;21145536;28;20032;-59
2023/01/08 06:11:09;;;;;;;6.05;3.15;;;4.00;99.90;;;;;;21152976;28;20553;-58
2023/01/08 06:21:12;;;;;;;4.70;2.97;;;4.10;99.90;;;;;;21135696;28;20027;-58
2023/01/08 06:31:13;;;;;;;1.98;0.98;;;4.10;99.90;;;;;;21127677;28;20036;-59
2023/01/08 06:41:15;;;;;;;7.10;3.88;;;3.90;99.90;;;;;;21136018;28;20453;-57
2023/01/08 06:51:19;;;;;;;8.85;5.35;;;3.70;99.90;;;;;;21103291;28;20047;-57
2023/01/08 07:01:21;;;;;;;1.38;0.85;;;3.30;99.90;;;;;;21143542;28;20080;-57
2023/01/08 07:11:23;;;;;;;0.75;0.20;;;3.40;99.90;;;;;;21099191;28;20034;-57
2023/01/08 07:21:24;;;;;;;0.45;0.28;;;3.80;99.90;;;;;;21107290;28;20125;-57
2023/01/08 07:31:26;;;;;;;1.40;0.80;;;4.20;99.90;;;;;;21157804;28;20036;-57
2023/01/08 07:41:28;;;;;;;1.00;0.60;;;4.20;99.90;;;;;;21146852;28;20036;-57
2023/01/08 07:51:31;;;;;;;3.67;1.65;;;4.20;99.90;;;;;;21116417;28;20420;-58
2023/01/08 08:01:33;;;;;;;2.03;0.50;;;4.30;99.90;;;;;;21155476;28;20032;-58
2023/01/08 08:11:37;;;;;;;0.90;0.40;;;4.60;99.90;;;;;;21162154;28;20180;-59
2023/01/08 08:21:39;;;;;;;3.53;0.80;;;4.80;99.90;;;;;;21114116;28;20385;-59
2023/01/08 08:31:41;;;;;;;0.88;0.20;;;4.90;99.90;;;;;;21079626;28;20458;-58
2023/01/08 08:41:43;;;;;;;0.80;0.25;;;4.80;99.90;;;;;;21140385;28;20043;-58
2023/01/08 08:51:45;;;;;;;1.17;0.43;;;4.90;99.90;;;;;;21114765;28;20043;-59
2023/01/08 09:01:47;;;;;;;3.40;1.50;;;4.80;99.90;;;;;;21150336;28;20043;-59
2023/01/08 09:11:49;;;;;;;77.93;6.97;;;4.70;99.90;;;;;;21099061;28;20477;-59
2023/01/08 09:21:51;;;;;;;8.25;4.50;;;4.50;99.90;;;;;;21113471;28;20851;-56
2023/01/08 09:31:54;;;;;;;4.55;2.80;;;4.30;99.90;;;;;;21148025;28;20039;-56
2023/01/08 09:41:57;;;;;;;3.83;2.15;;;4.10;99.90;;;;;;21133756;28;20464;-56
2023/01/08 09:51:59;;;;;;;2.28;1.42;;;4.40;99.90;;;;;;21137986;28;20412;-57
2023/01/08 10:02:03;;;;;;;303.13;11.45;;;4.90;99.90;;;;;;21137567;28;20065;-54
2023/01/08 10:12:06;;;;;;;13.90;1.75;;;4.90;99.90;;;;;;21131964;28;20039;-49
2023/01/08 10:22:21;;;;;;;140.40;5.32;;;4.50;99.90;;;;;;21140156;28;20043;-54
2023/01/08 10:32:29;;;;;;;83.53;3.22;;;4.20;99.90;;;;;;21110319;28;20415;-54
2023/01/08 10:42:34;;;;;;;13.05;0.45;;;4.30;99.90;;;;;;21135751;28;20358;-53
2023/01/08 10:52:35;;;;;;;7.85;0.30;;;4.30;99.90;;;;;;21144017;28;20069;-53
2023/01/08 11:02:39;;;;;;;3.22;0.20;;;4.20;99.90;;;;;;21103061;28;20036;-53
2023/01/08 11:12:41;;;;;;;177.95;4.78;;;4.20;99.90;;;;;;21138176;28;20032;-54
2023/01/08 11:22:42;;;;;;;84.75;2.47;;;4.10;99.90;;;;;;21147007;28;20028;-53
2023/01/08 11:33:08;;;;;;;21.88;0.68;;;4.20;99.90;;;;;;21148852;28;20035;-54
2023/01/08 11:43:38;;;;;;;80.00;2.17;;;4.10;99.90;;;;;;21154722;28;20081;-53
2023/01/08 11:54:12;;;;;;;452.65;15.75;;;4.10;99.90;;;;;;21099680;28;20048;-54
2023/01/08 12:04:40;;;;;;;558.42;16.48;;;4.10;99.90;;;;;;21094068;28;20032;-54
2023/01/08 12:15:00;;;;;;;37.67;1.13;;;4.00;99.90;;;;;;21159880;28;20031;-52
2023/01/08 12:25:10;;;;;;;39.90;1.13;;;4.10;99.90;;;;;;21127989;28;20032;-53
2023/01/08 12:35:21;;;;;;;157.77;4.60;;;4.20;99.90;;;;;;21135382;28;20032;-54
2023/01/08 12:45:27;;;;;;;0.77;0.20;;;4.20;99.90;;;;;;21156541;28;20031;-53
2023/01/08 12:55:50;;;;;;;16.77;0.32;;;4.10;99.90;;;;;;21076854;28;20043;-52
2023/01/08 13:06:03;;;;;;;0.45;0.00;;;4.00;99.90;;;;;;21106766;28;20109;-51
2023/01/08 13:16:19;;;;;;;0.00;0.00;;;4.00;99.90;;;;;;21071966;28;20028;-52
2023/01/08 13:26:32;;;;;;;0.00;0.00;;;3.80;99.90;;;;;;21110515;28;20040;-53
2023/01/08 13:36:33;;;;;;;0.52;0.03;;;3.70;99.90;;;;;;21129536;28;20031;-52
2023/01/08 13:46:39;;;;;;;0.98;0.20;;;3.80;99.90;;;;;;21141157;28;20036;-53
2023/01/08 13:56:44;;;;;;;1.33;0.20;;;3.70;99.90;;;;;;21136214;28;20084;-52
2023/01/08 14:06:45;;;;;;;2.13;0.10;;;3.70;99.90;;;;;;21145954;28;20036;-52
2023/01/08 14:16:50;;;;;;;0.30;0.10;;;3.60;99.90;;;;;;21121026;28;20052;-52
2023/01/08 14:26:58;;;;;;;0.10;0.05;;;3.50;99.90;;;;;;21150222;28;20073;-53
2023/01/08 14:37:00;;;;;;;1.08;0.00;;;3.50;99.90;;;;;;21134091;28;20024;-53
2023/01/08 14:47:02;;;;;;;0.03;0.00;;;3.40;99.90;;;;;;21135624;28;20063;-52
2023/01/08 14:57:05;;;;;;;0.00;0.00;;;3.10;99.90;;;;;;21116167;28;20540;-50
2023/01/08 15:07:17;;;;;;;0.00;0.00;;;2.60;99.90;;;;;;21118061;28;20040;-53
2023/01/08 15:17:25;;;;;;;0.50;0.00;;;2.20;99.90;;;;;;21135218;28;20688;-52
2023/01/08 15:27:30;;;;;;;0.00;0.00;;;2.20;99.90;;;;;;21151255;28;20081;-53
2023/01/08 15:37:31;;;;;;;0.10;0.00;;;2.20;99.90;;;;;;21126764;28;20032;-45
2023/01/08 15:47:33;;;;;;;0.10;0.00;;;2.30;99.90;;;;;;21093360;28;20043;-48
2023/01/08 15:57:35;;;;;;;0.00;0.00;;;2.20;99.90;;;;;;21137327;28;20039;-49
2023/01/08 16:07:37;;;;;;;0.00;0.00;;;2.20;99.90;;;;;;21150056;28;20074;-53
2023/01/08 16:17:39;;;;;;;0.20;0.03;;;2.50;99.90;;;;;;21145696;28;20032;-54
2023/01/08 16:27:41;;;;;;;0.30;0.00;;;2.90;99.90;;;;;;21161947;28;20024;-54
2023/01/08 16:37:43;;;;;;;0.00;0.00;;;2.90;99.90;;;;;;21142564;28;20031;-55
2023/01/08 16:47:45;;;;;;;0.00;0.00;;;2.80;99.90;;;;;;21142608;28;20039;-48
2023/01/08 16:57:46;;;;;;;0.35;0.00;;;2.90;99.90;;;;;;21159405;28;20038;-49
2023/01/08 17:07:53;;;;;;;0.10;0.00;;;2.90;99.90;;;;;;21149853;28;20042;-52
2023/01/08 17:17:54;;;;;;;0.82;0.30;;;2.90;99.90;;;;;;21141002;28;20032;-49
2023/01/08 17:27:56;;;;;;;0.30;0.10;;;3.00;99.90;;;;;;21156892;28;20081;-53
2023/01/08 17:37:58;;;;;;;0.30;0.20;;;3.10;99.90;;;;;;21137469;28;20062;-54
2023/01/08 17:48:00;;;;;;;0.98;0.20;;;3.20;99.90;;;;;;21121382;27;20091;-50
2023/01/08 17:58:02;;;;;;;0.60;0.20;;;3.30;99.90;;;;;;21070179;28;20032;-53
2023/01/08 18:08:04;;;;;;;0.45;0.30;;;3.50;99.90;;;;;;21085219;28;20082;-49
2023/01/08 18:18:06;;;;;;;18.88;0.65;;;3.70;99.90;;;;;;21077714;28;20035;-50
2023/01/08 18:28:07;;;;;;;0.25;0.10;;;3.70;99.90;;;;;;21152733;28;20097;-53
2023/01/08 18:38:14;;;;;;;7.43;0.20;;;3.60;99.90;;;;;;21115510;28;20028;-48
2023/01/08 18:48:16;;;;;;;0.50;0.25;;;3.60;99.90;;;;;;21118452;28;20396;-53
2023/01/08 18:58:18;;;;;;;2.58;0.13;;;3.70;99.90;;;;;;21140355;28;20122;-49
2023/01/08 19:08:20;;;;;;;3.05;0.20;;;3.80;99.90;;;;;;21111938;28;20039;-51
2023/01/08 19:18:21;;;;;;;17.60;0.85;;;3.80;99.90;;;;;;21123917;28;20032;-49
2023/01/08 19:28:24;;;;;;;7.25;0.95;;;3.90;99.90;;;;;;21154512;28;20078;-51
2023/01/08 19:38:26;;;;;;;1.63;0.25;;;4.10;99.90;;;;;;21133026;28;20035;-52
2023/01/08 19:48:28;;;;;;;127.68;3.58;;;4.10;99.90;;;;;;21147820;28;20055;-51
2023/01/08 19:58:30;;;;;;;158.02;3.72;;;4.20;99.90;;;;;;21151275;28;20350;-52
2023/01/08 20:08:31;;;;;;;212.23;6.43;;;4.20;99.90;;;;;;21141515;28;20047;-50
2023/01/08 20:18:34;;;;;;;290.58;7.00;;;4.20;99.90;;;;;;21127832;28;20035;-53
2023/01/08 20:28:37;;;;;;;23.80;1.75;;;4.20;99.90;;;;;;21160457;28;20036;-52
2023/01/08 20:38:40;;;;;;;241.90;6.72;;;4.20;99.90;;;;;;21142576;28;20164;-51
2023/01/08 20:48:42;;;;;;;290.85;7.53;;;4.40;99.90;;;;;;21124800;28;20043;-53
2023/01/08 20:58:46;;;;;;;198.32;6.65;;;4.30;99.90;;;;;;21110479;28;20555;-52
2023/01/08 21:08:50;;;;;;;158.65;4.13;;;4.40;99.90;;;;;;21132633;28;20040;-49
2023/01/08 21:18:53;;;;;;;44.20;1.23;;;4.30;99.90;;;;;;21124930;28;20043;-51
2023/01/08 21:28:55;;;;;;;139.85;4.90;;;4.30;99.90;;;;;;21149014;28;20028;-50
2023/01/08 21:38:58;;;;;;;20.60;0.52;;;4.30;99.90;;;;;;21127419;28;20531;-52
2023/01/08 21:49:00;;;;;;;82.38;2.83;;;4.20;99.90;;;;;;21138098;28;20557;-48
2023/01/08 21:59:02;;;;;;;2.10;0.28;;;4.20;99.90;;;;;;21154289;28;20093;-52
2023/01/08 22:09:04;;;;;;;112.75;2.78;;;4.10;99.90;;;;;;21128160;28;20032;-49
2023/01/08 22:19:06;;;;;;;174.60;4.82;;;4.10;99.90;;;;;;21119967;28;20357;-48
2023/01/08 22:29:08;;;;;;;0.47;0.20;;;4.10;99.90;;;;;;21120359;28;20043;-53
2023/01/08 22:39:11;;;;;;;19.98;0.80;;;4.10;99.90;;;;;;21115903;28;20024;-53
2023/01/08 22:49:13;;;;;;;2.60;0.30;;;4.00;99.90;;;;;;21128799;28;20043;-54
2023/01/08 22:59:15;;;;;;;1.13;0.10;;;3.90;99.90;;;;;;21151831;28;20073;-52
2023/01/08 23:09:17;;;;;;;0.52;0.00;;;3.80;99.90;;;;;;21159399;28;20035;-49
2023/01/08 23:19:18;;;;;;;0.10;0.00;;;3.70;99.90;;;;;;21135153;28;20039;-48
2023/01/08 23:29:20;;;;;;;0.90;0.00;;;3.60;99.90;;;;;;21166671;28;20612;-50
2023/01/08 23:39:25;;;;;;;0.60;0.00;;;3.50;99.90;;;;;;21147425;28;20057;-47
2023/01/08 23:49:27;;;;;;;0.10;0.00;;;3.40;99.90;;;;;;21121955;28;20043;-50
2023/01/08 23:59:29;;;;;;;0.00;0.00;;;3.20;99.90;;;;;;21164082;28;20033;-52
